sensor_id;sensor_type;location;lat;lon;timestamp;P1;durP1;ratioP1;P2;durP2;ratioP2
31674;SDS011;18276;45.520;11.018;2023-04-25T00:00:53;8.55;;;5.00;;
31674;SDS011;18276;45.520;11.018;2023-04-25T00:03:20;6.60;;;5.25;;
31674;SDS011;18276;45.520;11.018;2023-04-25T00:05:48;6.93;;;5.07;;
31674;SDS011;18276;45.520;11.018;2023-04-25T00:08:15;8.77;;;5.25;;
31674;SDS011;18276;45.520;11.018;2023-04-25T00:10:42;6.43;;;4.88;;
31674;SDS011;18276;45.520;11.018;2023-04-25T00:13:09;7.55;;;4.68;;
31674;SDS011;18276;45.520;11.018;2023-04-25T00:15:37;6.40;;;4.75;;
31674;SDS011;18276;45.520;11.018;2023-04-25T00:18:05;8.65;;;5.25;;
31674;SDS011;18276;45.520;11.018;2023-04-25T00:20:35;8.57;;;5.45;;
31674;SDS011;18276;45.520;11.018;2023-04-25T00:23:02;8.15;;;5.63;;
31674;SDS011;18276;45.520;11.018;2023-04-25T00:25:29;6.97;;;5.43;;
31674;SDS011;18276;45.520;11.018;2023-04-25T00:27:56;10.95;;;6.03;;
31674;SDS011;18276;45.520;11.018;2023-04-25T00:30:23;8.20;;;5.43;;
31674;SDS011;18276;45.520;11.018;2023-04-25T00:32:50;8.60;;;5.57;;
31674;SDS011;18276;45.520;11.018;2023-04-25T00:35:17;7.20;;;5.32;;
31674;SDS011;18276;45.520;11.018;2023-04-25T00:37:44;7.93;;;5.40;;
31674;SDS011;18276;45.520;11.018;2023-04-25T00:40:11;8.88;;;5.60;;
31674;SDS011;18276;45.520;11.018;2023-04-25T00:42:38;7.43;;;5.35;;
31674;SDS011;18276;45.520;11.018;2023-04-25T00:45:06;12.00;;;6.22;;
31674;SDS011;18276;45.520;11.018;2023-04-25T00:47:38;10.02;;;5.40;;
31674;SDS011;18276;45.520;11.018;2023-04-25T00:50:07;7.43;;;5.63;;
31674;SDS011;18276;45.520;11.018;2023-04-25T00:52:35;6.90;;;5.90;;
31674;SDS011;18276;45.520;11.018;2023-04-25T00:55:04;8.93;;;5.32;;
31674;SDS011;18276;45.520;11.018;2023-04-25T00:57:32;12.02;;;7.18;;
31674;SDS011;18276;45.520;11.018;2023-04-25T00:59:59;9.65;;;6.38;;
31674;SDS011;18276;45.520;11.018;2023-04-25T01:02:27;9.50;;;7.00;;
31674;SDS011;18276;45.520;11.018;2023-04-25T01:04:55;10.25;;;6.70;;
31674;SDS011;18276;45.520;11.018;2023-04-25T01:07:22;20.52;;;11.73;;
31674;SDS011;18276;45.520;11.018;2023-04-25T01:09:51;15.10;;;9.02;;
31674;SDS011;18276;45.520;11.018;2023-04-25T01:12:18;10.05;;;6.72;;
31674;SDS011;18276;45.520;11.018;2023-04-25T01:14:46;13.98;;;9.82;;
31674;SDS011;18276;45.520;11.018;2023-04-25T01:17:13;13.20;;;7.68;;
31674;SDS011;18276;45.520;11.018;2023-04-25T01:19:41;12.43;;;6.93;;
31674;SDS011;18276;45.520;11.018;2023-04-25T01:22:08;7.65;;;6.15;;
31674;SDS011;18276;45.520;11.018;2023-04-25T01:24:36;8.73;;;5.95;;
31674;SDS011;18276;45.520;11.018;2023-04-25T01:27:04;12.20;;;6.25;;
31674;SDS011;18276;45.520;11.018;2023-04-25T01:29:33;8.85;;;6.57;;
31674;SDS011;18276;45.520;11.018;2023-04-25T01:32:02;11.55;;;6.15;;
31674;SDS011;18276;45.520;11.018;2023-04-25T01:34:30;9.73;;;6.70;;
31674;SDS011;18276;45.520;11.018;2023-04-25T01:36:57;9.52;;;7.15;;
31674;SDS011;18276;45.520;11.018;2023-04-25T01:39:27;11.63;;;6.68;;
31674;SDS011;18276;45.520;11.018;2023-04-25T01:41:55;10.25;;;7.03;;
31674;SDS011;18276;45.520;11.018;2023-04-25T01:44:23;10.57;;;7.20;;
31674;SDS011;18276;45.520;11.018;2023-04-25T01:46:50;9.70;;;6.57;;
31674;SDS011;18276;45.520;11.018;2023-04-25T01:49:17;11.50;;;6.50;;
31674;SDS011;18276;45.520;11.018;2023-04-25T01:51:44;9.93;;;6.25;;
31674;SDS011;18276;45.520;11.018;2023-04-25T01:54:11;10.88;;;6.53;;
31674;SDS011;18276;45.520;11.018;2023-04-25T01:56:39;10.27;;;6.25;;
31674;SDS011;18276;45.520;11.018;2023-04-25T01:59:10;7.68;;;6.00;;
31674;SDS011;18276;45.520;11.018;2023-04-25T02:02:04;8.68;;;5.85;;
31674;SDS011;18276;45.520;11.018;2023-04-25T02:04:32;8.75;;;5.63;;
31674;SDS011;18276;45.520;11.018;2023-04-25T02:07:01;10.10;;;6.20;;
31674;SDS011;18276;45.520;11.018;2023-04-25T02:09:37;11.27;;;6.20;;
31674;SDS011;18276;45.520;11.018;2023-04-25T02:12:07;9.98;;;6.07;;
31674;SDS011;18276;45.520;11.018;2023-04-25T02:14:54;8.27;;;5.40;;
31674;SDS011;18276;45.520;11.018;2023-04-25T02:17:36;10.18;;;6.05;;
31674;SDS011;18276;45.520;11.018;2023-04-25T02:20:04;8.02;;;5.70;;
31674;SDS011;18276;45.520;11.018;2023-04-25T02:22:31;10.52;;;6.95;;
31674;SDS011;18276;45.520;11.018;2023-04-25T02:25:00;10.10;;;5.60;;
31674;SDS011;18276;45.520;11.018;2023-04-25T02:27:27;8.27;;;5.57;;
31674;SDS011;18276;45.520;11.018;2023-04-25T02:29:55;7.53;;;5.35;;
31674;SDS011;18276;45.520;11.018;2023-04-25T02:32:22;8.00;;;4.70;;
31674;SDS011;18276;45.520;11.018;2023-04-25T02:34:49;8.60;;;5.57;;
31674;SDS011;18276;45.520;11.018;2023-04-25T02:37:16;8.90;;;5.40;;
31674;SDS011;18276;45.520;11.018;2023-04-25T02:39:44;11.65;;;5.35;;
31674;SDS011;18276;45.520;11.018;2023-04-25T02:42:11;7.90;;;5.63;;
31674;SDS011;18276;45.520;11.018;2023-04-25T02:44:38;7.53;;;5.03;;
31674;SDS011;18276;45.520;11.018;2023-04-25T02:47:05;7.97;;;5.55;;
31674;SDS011;18276;45.520;11.018;2023-04-25T02:49:32;7.40;;;5.20;;
31674;SDS011;18276;45.520;11.018;2023-04-25T02:51:59;8.25;;;5.18;;
31674;SDS011;18276;45.520;11.018;2023-04-25T02:54:26;7.30;;;5.10;;
31674;SDS011;18276;45.520;11.018;2023-04-25T02:56:54;6.22;;;4.53;;
31674;SDS011;18276;45.520;11.018;2023-04-25T02:59:25;6.80;;;4.13;;
31674;SDS011;18276;45.520;11.018;2023-04-25T03:01:52;7.75;;;4.30;;
31674;SDS011;18276;45.520;11.018;2023-04-25T03:04:20;8.70;;;5.50;;
31674;SDS011;18276;45.520;11.018;2023-04-25T03:06:47;9.48;;;5.35;;
31674;SDS011;18276;45.520;11.018;2023-04-25T03:09:14;8.35;;;5.40;;
31674;SDS011;18276;45.520;11.018;2023-04-25T03:11:41;8.55;;;4.95;;
31674;SDS011;18276;45.520;11.018;2023-04-25T03:14:11;6.78;;;4.35;;
31674;SDS011;18276;45.520;11.018;2023-04-25T03:16:38;9.32;;;4.35;;
31674;SDS011;18276;45.520;11.018;2023-04-25T03:19:05;5.25;;;3.88;;
31674;SDS011;18276;45.520;11.018;2023-04-25T03:21:34;6.30;;;4.00;;
31674;SDS011;18276;45.520;11.018;2023-04-25T03:24:02;7.85;;;4.55;;
31674;SDS011;18276;45.520;11.018;2023-04-25T03:26:31;5.45;;;3.97;;
31674;SDS011;18276;45.520;11.018;2023-04-25T03:28:58;5.05;;;4.22;;
31674;SDS011;18276;45.520;11.018;2023-04-25T03:31:26;6.88;;;4.40;;
31674;SDS011;18276;45.520;11.018;2023-04-25T03:33:53;5.20;;;3.95;;
31674;SDS011;18276;45.520;11.018;2023-04-25T03:36:22;5.70;;;4.13;;
31674;SDS011;18276;45.520;11.018;2023-04-25T03:38:49;5.53;;;3.85;;
31674;SDS011;18276;45.520;11.018;2023-04-25T03:41:17;11.35;;;4.45;;
31674;SDS011;18276;45.520;11.018;2023-04-25T03:43:48;5.90;;;3.70;;
31674;SDS011;18276;45.520;11.018;2023-04-25T03:46:16;6.72;;;3.53;;
31674;SDS011;18276;45.520;11.018;2023-04-25T03:48:44;2.85;;;1.77;;
31674;SDS011;18276;45.520;11.018;2023-04-25T03:51:18;2.88;;;1.88;;
31674;SDS011;18276;45.520;11.018;2023-04-25T03:53:47;6.10;;;3.08;;
31674;SDS011;18276;45.520;11.018;2023-04-25T03:56:30;4.63;;;3.25;;
31674;SDS011;18276;45.520;11.018;2023-04-25T03:59:08;3.28;;;2.58;;
31674;SDS011;18276;45.520;11.018;2023-04-25T04:01:35;6.75;;;2.30;;
31674;SDS011;18276;45.520;11.018;2023-04-25T04:04:02;5.43;;;2.08;;
31674;SDS011;18276;45.520;11.018;2023-04-25T04:06:30;2.13;;;1.40;;
31674;SDS011;18276;45.520;11.018;2023-04-25T04:09:05;1.92;;;1.08;;
31674;SDS011;18276;45.520;11.018;2023-04-25T04:11:38;2.22;;;1.10;;
31674;SDS011;18276;45.520;11.018;2023-04-25T04:14:06;0.98;;;0.93;;
31674;SDS011;18276;45.520;11.018;2023-04-25T04:16:34;1.80;;;1.00;;
31674;SDS011;18276;45.520;11.018;2023-04-25T04:19:02;0.80;;;0.80;;
31674;SDS011;18276;45.520;11.018;2023-04-25T04:21:30;0.93;;;0.90;;
31674;SDS011;18276;45.520;11.018;2023-04-25T04:23:58;1.80;;;0.80;;
31674;SDS011;18276;45.520;11.018;2023-04-25T04:26:29;0.80;;;0.77;;
31674;SDS011;18276;45.520;11.018;2023-04-25T04:29:21;0.77;;;0.60;;
31674;SDS011;18276;45.520;11.018;2023-04-25T04:31:58;0.77;;;0.50;;
31674;SDS011;18276;45.520;11.018;2023-04-25T04:34:28;2.92;;;1.38;;
31674;SDS011;18276;45.520;11.018;2023-04-25T04:36:55;1.17;;;0.70;;
31674;SDS011;18276;45.520;11.018;2023-04-25T04:39:24;1.05;;;0.65;;
31674;SDS011;18276;45.520;11.018;2023-04-25T04:42:09;1.10;;;0.60;;
31674;SDS011;18276;45.520;11.018;2023-04-25T04:44:58;0.52;;;0.40;;
31674;SDS011;18276;45.520;11.018;2023-04-25T04:47:45;1.48;;;0.80;;
31674;SDS011;18276;45.520;11.018;2023-04-25T04:50:31;3.00;;;0.70;;
31674;SDS011;18276;45.520;11.018;2023-04-25T04:53:18;2.10;;;1.40;;
31674;SDS011;18276;45.520;11.018;2023-04-25T04:56:08;2.78;;;2.10;;
31674;SDS011;18276;45.520;11.018;2023-04-25T04:59:08;2.42;;;1.70;;
31674;SDS011;18276;45.520;11.018;2023-04-25T05:01:57;4.03;;;1.70;;
31674;SDS011;18276;45.520;11.018;2023-04-25T05:04:45;3.05;;;2.13;;
31674;SDS011;18276;45.520;11.018;2023-04-25T05:07:30;5.97;;;2.90;;
31674;SDS011;18276;45.520;11.018;2023-04-25T05:10:23;6.63;;;4.20;;
31674;SDS011;18276;45.520;11.018;2023-04-25T05:13:09;12.82;;;4.50;;
31674;SDS011;18276;45.520;11.018;2023-04-25T05:15:56;9.13;;;4.80;;
31674;SDS011;18276;45.520;11.018;2023-04-25T05:18:42;17.50;;;5.07;;
31674;SDS011;18276;45.520;11.018;2023-04-25T05:21:27;13.10;;;4.53;;
31674;SDS011;18276;45.520;11.018;2023-04-25T05:24:06;11.10;;;3.72;;
31674;SDS011;18276;45.520;11.018;2023-04-25T05:26:51;5.75;;;2.90;;
31674;SDS011;18276;45.520;11.018;2023-04-25T05:29:42;6.85;;;2.40;;
31674;SDS011;18276;45.520;11.018;2023-04-25T05:32:25;7.38;;;2.28;;
31674;SDS011;18276;45.520;11.018;2023-04-25T05:34:53;6.05;;;2.05;;
31674;SDS011;18276;45.520;11.018;2023-04-25T05:37:27;2.83;;;1.52;;
31674;SDS011;18276;45.520;11.018;2023-04-25T05:39:58;2.22;;;1.50;;
31674;SDS011;18276;45.520;11.018;2023-04-25T05:42:34;5.00;;;2.70;;
31674;SDS011;18276;45.520;11.018;2023-04-25T05:45:20;4.13;;;1.60;;
31674;SDS011;18276;45.520;11.018;2023-04-25T05:47:53;3.60;;;1.50;;
31674;SDS011;18276;45.520;11.018;2023-04-25T05:50:27;3.00;;;1.40;;
31674;SDS011;18276;45.520;11.018;2023-04-25T05:52:59;2.88;;;1.30;;
31674;SDS011;18276;45.520;11.018;2023-04-25T05:55:34;3.38;;;1.70;;
31674;SDS011;18276;45.520;11.018;2023-04-25T05:58:15;3.28;;;1.52;;
31674;SDS011;18276;45.520;11.018;2023-04-25T06:00:42;3.75;;;1.23;;
31674;SDS011;18276;45.520;11.018;2023-04-25T06:03:09;2.13;;;1.05;;
31674;SDS011;18276;45.520;11.018;2023-04-25T06:05:36;3.33;;;1.20;;
31674;SDS011;18276;45.520;11.018;2023-04-25T06:08:03;2.15;;;1.25;;
31674;SDS011;18276;45.520;11.018;2023-04-25T06:10:30;9.73;;;1.88;;
31674;SDS011;18276;45.520;11.018;2023-04-25T06:12:57;3.90;;;1.38;;
31674;SDS011;18276;45.520;11.018;2023-04-25T06:15:25;6.82;;;2.83;;
31674;SDS011;18276;45.520;11.018;2023-04-25T06:17:55;3.88;;;2.72;;
31674;SDS011;18276;45.520;11.018;2023-04-25T06:20:22;5.13;;;2.35;;
31674;SDS011;18276;45.520;11.018;2023-04-25T06:22:52;5.75;;;1.50;;
31674;SDS011;18276;45.520;11.018;2023-04-25T06:25:25;4.30;;;1.55;;
31674;SDS011;18276;45.520;11.018;2023-04-25T06:27:53;2.65;;;1.40;;
31674;SDS011;18276;45.520;11.018;2023-04-25T06:30:21;1.90;;;1.27;;
31674;SDS011;18276;45.520;11.018;2023-04-25T06:32:57;4.03;;;1.40;;
31674;SDS011;18276;45.520;11.018;2023-04-25T06:35:27;3.15;;;1.20;;
31674;SDS011;18276;45.520;11.018;2023-04-25T06:37:54;4.28;;;1.80;;
31674;SDS011;18276;45.520;11.018;2023-04-25T06:40:22;3.80;;;1.25;;
31674;SDS011;18276;45.520;11.018;2023-04-25T06:42:50;2.38;;;1.35;;
31674;SDS011;18276;45.520;11.018;2023-04-25T06:45:55;5.03;;;1.63;;
31674;SDS011;18276;45.520;11.018;2023-04-25T06:48:26;2.45;;;1.50;;
31674;SDS011;18276;45.520;11.018;2023-04-25T06:50:53;1.83;;;0.73;;
31674;SDS011;18276;45.520;11.018;2023-04-25T06:53:22;3.20;;;1.05;;
31674;SDS011;18276;45.520;11.018;2023-04-25T06:55:55;3.63;;;1.27;;
31674;SDS011;18276;45.520;11.018;2023-04-25T06:58:23;3.03;;;1.10;;
31674;SDS011;18276;45.520;11.018;2023-04-25T07:00:57;2.15;;;1.60;;
31674;SDS011;18276;45.520;11.018;2023-04-25T07:03:25;5.15;;;1.77;;
31674;SDS011;18276;45.520;11.018;2023-04-25T07:05:57;2.53;;;1.45;;
31674;SDS011;18276;45.520;11.018;2023-04-25T07:08:24;4.75;;;1.63;;
31674;SDS011;18276;45.520;11.018;2023-04-25T07:10:51;4.18;;;1.30;;
31674;SDS011;18276;45.520;11.018;2023-04-25T07:13:18;2.03;;;1.40;;
31674;SDS011;18276;45.520;11.018;2023-04-25T07:15:46;1.65;;;1.13;;
31674;SDS011;18276;45.520;11.018;2023-04-25T07:18:16;2.47;;;1.63;;
31674;SDS011;18276;45.520;11.018;2023-04-25T07:20:43;1.60;;;1.27;;
31674;SDS011;18276;45.520;11.018;2023-04-25T07:23:11;3.00;;;1.33;;
31674;SDS011;18276;45.520;11.018;2023-04-25T07:25:38;3.60;;;1.00;;
31674;SDS011;18276;45.520;11.018;2023-04-25T07:28:06;0.88;;;0.80;;
31674;SDS011;18276;45.520;11.018;2023-04-25T07:30:35;2.50;;;1.10;;
31674;SDS011;18276;45.520;11.018;2023-04-25T07:33:02;2.40;;;1.25;;
31674;SDS011;18276;45.520;11.018;2023-04-25T07:35:30;2.17;;;1.20;;
31674;SDS011;18276;45.520;11.018;2023-04-25T07:37:57;1.65;;;1.10;;
31674;SDS011;18276;45.520;11.018;2023-04-25T07:40:25;2.45;;;1.15;;
31674;SDS011;18276;45.520;11.018;2023-04-25T07:42:57;2.78;;;1.33;;
31674;SDS011;18276;45.520;11.018;2023-04-25T07:45:32;2.78;;;1.20;;
31674;SDS011;18276;45.520;11.018;2023-04-25T07:48:00;4.03;;;1.67;;
31674;SDS011;18276;45.520;11.018;2023-04-25T07:50:29;2.15;;;1.30;;
31674;SDS011;18276;45.520;11.018;2023-04-25T11:37:13;2.33;;;1.05;;
31674;SDS011;18276;45.520;11.018;2023-04-25T11:47:08;1.40;;;1.00;;
31674;SDS011;18276;45.520;11.018;2023-04-25T11:49:35;1.33;;;0.80;;
31674;SDS011;18276;45.520;11.018;2023-04-25T11:52:02;2.00;;;1.08;;
31674;SDS011;18276;45.520;11.018;2023-04-25T11:54:34;2.00;;;1.02;;
31674;SDS011;18276;45.520;11.018;2023-04-25T11:57:02;1.10;;;0.70;;
31674;SDS011;18276;45.520;11.018;2023-04-25T11:59:30;3.08;;;0.90;;
31674;SDS011;18276;45.520;11.018;2023-04-25T12:01:57;5.22;;;1.52;;
31674;SDS011;18276;45.520;11.018;2023-04-25T12:04:24;3.10;;;1.88;;
31674;SDS011;18276;45.520;11.018;2023-04-25T12:06:52;3.65;;;1.67;;
31674;SDS011;18276;45.520;11.018;2023-04-25T12:09:27;1.30;;;1.20;;
31674;SDS011;18276;45.520;11.018;2023-04-25T12:11:57;3.67;;;1.75;;
31674;SDS011;18276;45.520;11.018;2023-04-25T12:14:26;1.50;;;1.00;;
31674;SDS011;18276;45.520;11.018;2023-04-25T12:16:55;1.58;;;1.10;;
31674;SDS011;18276;45.520;11.018;2023-04-25T12:19:24;1.83;;;0.98;;
31674;SDS011;18276;45.520;11.018;2023-04-25T12:21:52;1.52;;;1.10;;
31674;SDS011;18276;45.520;11.018;2023-04-25T12:24:25;3.00;;;1.20;;
31674;SDS011;18276;45.520;11.018;2023-04-25T12:27:03;3.20;;;2.35;;
31674;SDS011;18276;45.520;11.018;2023-04-25T12:29:31;3.15;;;2.28;;
31674;SDS011;18276;45.520;11.018;2023-04-25T12:32:15;2.95;;;1.35;;
31674;SDS011;18276;45.520;11.018;2023-04-25T12:34:43;2.90;;;1.92;;
31674;SDS011;18276;45.520;11.018;2023-04-25T12:37:11;3.70;;;1.73;;
31674;SDS011;18276;45.520;11.018;2023-04-25T12:39:38;3.35;;;1.83;;
31674;SDS011;18276;45.520;11.018;2023-04-25T12:42:14;2.15;;;1.73;;
31674;SDS011;18276;45.520;11.018;2023-04-25T12:44:41;2.58;;;1.40;;
31674;SDS011;18276;45.520;11.018;2023-04-25T12:47:08;3.42;;;1.90;;
31674;SDS011;18276;45.520;11.018;2023-04-25T12:49:36;4.50;;;1.75;;
31674;SDS011;18276;45.520;11.018;2023-04-25T12:52:03;6.25;;;2.40;;
31674;SDS011;18276;45.520;11.018;2023-04-25T12:54:30;5.20;;;2.10;;
31674;SDS011;18276;45.520;11.018;2023-04-25T12:56:57;3.00;;;1.75;;
31674;SDS011;18276;45.520;11.018;2023-04-25T12:59:24;2.60;;;1.38;;
31674;SDS011;18276;45.520;11.018;2023-04-25T13:01:51;4.68;;;1.95;;
31674;SDS011;18276;45.520;11.018;2023-04-25T13:04:18;2.60;;;1.30;;
31674;SDS011;18276;45.520;11.018;2023-04-25T13:06:47;2.00;;;1.20;;
31674;SDS011;18276;45.520;11.018;2023-04-25T13:09:14;3.15;;;1.20;;
31674;SDS011;18276;45.520;11.018;2023-04-25T13:11:42;3.13;;;1.15;;
31674;SDS011;18276;45.520;11.018;2023-04-25T13:14:08;2.55;;;1.42;;
31674;SDS011;18276;45.520;11.018;2023-04-25T13:16:36;1.90;;;1.40;;
31674;SDS011;18276;45.520;11.018;2023-04-25T13:19:03;2.60;;;1.63;;
31674;SDS011;18276;45.520;11.018;2023-04-25T13:21:31;1.83;;;1.17;;
31674;SDS011;18276;45.520;11.018;2023-04-25T13:23:58;2.15;;;1.48;;
31674;SDS011;18276;45.520;11.018;2023-04-25T13:26:26;4.72;;;1.52;;
31674;SDS011;18276;45.520;11.018;2023-04-25T13:28:53;6.28;;;1.98;;
31674;SDS011;18276;45.520;11.018;2023-04-25T13:31:20;5.53;;;1.98;;
31674;SDS011;18276;45.520;11.018;2023-04-25T13:33:47;4.57;;;2.22;;
31674;SDS011;18276;45.520;11.018;2023-04-25T13:36:14;4.70;;;2.33;;
31674;SDS011;18276;45.520;11.018;2023-04-25T13:38:41;4.68;;;2.53;;
31674;SDS011;18276;45.520;11.018;2023-04-25T13:41:10;3.70;;;1.65;;
31674;SDS011;18276;45.520;11.018;2023-04-25T13:43:42;2.83;;;1.90;;
31674;SDS011;18276;45.520;11.018;2023-04-25T13:46:08;2.97;;;1.70;;
31674;SDS011;18276;45.520;11.018;2023-04-25T13:48:55;1.52;;;1.35;;
31674;SDS011;18276;45.520;11.018;2023-04-25T13:51:37;5.35;;;1.70;;
31674;SDS011;18276;45.520;11.018;2023-04-25T13:54:04;3.03;;;1.80;;
31674;SDS011;18276;45.520;11.018;2023-04-25T13:56:31;2.17;;;1.88;;
31674;SDS011;18276;45.520;11.018;2023-04-25T13:58:58;1.95;;;1.52;;
31674;SDS011;18276;45.520;11.018;2023-04-25T14:01:25;2.85;;;1.67;;
31674;SDS011;18276;45.520;11.018;2023-04-25T14:03:53;8.43;;;2.42;;
31674;SDS011;18276;45.520;11.018;2023-04-25T14:06:20;2.47;;;1.80;;
31674;SDS011;18276;45.520;11.018;2023-04-25T14:08:50;4.13;;;2.25;;
31674;SDS011;18276;45.520;11.018;2023-04-25T14:11:17;4.50;;;2.30;;
31674;SDS011;18276;45.520;11.018;2023-04-25T14:13:47;2.33;;;2.08;;
31674;SDS011;18276;45.520;11.018;2023-04-25T14:16:15;3.92;;;2.20;;
31674;SDS011;18276;45.520;11.018;2023-04-25T14:18:43;2.83;;;2.10;;
31674;SDS011;18276;45.520;11.018;2023-04-25T14:21:10;7.53;;;3.22;;
31674;SDS011;18276;45.520;11.018;2023-04-25T14:23:37;3.30;;;2.10;;
31674;SDS011;18276;45.520;11.018;2023-04-25T14:26:04;6.47;;;4.60;;
31674;SDS011;18276;45.520;11.018;2023-04-25T14:28:31;5.57;;;3.10;;
31674;SDS011;18276;45.520;11.018;2023-04-25T14:30:58;5.90;;;3.22;;
31674;SDS011;18276;45.520;11.018;2023-04-25T14:33:26;6.90;;;2.83;;
31674;SDS011;18276;45.520;11.018;2023-04-25T14:35:53;8.02;;;2.53;;
31674;SDS011;18276;45.520;11.018;2023-04-25T14:38:20;4.47;;;2.33;;
31674;SDS011;18276;45.520;11.018;2023-04-25T14:40:49;4.03;;;1.83;;
31674;SDS011;18276;45.520;11.018;2023-04-25T14:43:17;3.97;;;2.08;;
31674;SDS011;18276;45.520;11.018;2023-04-25T14:45:44;6.10;;;2.47;;
31674;SDS011;18276;45.520;11.018;2023-04-25T14:48:11;4.07;;;2.63;;
31674;SDS011;18276;45.520;11.018;2023-04-25T14:50:38;4.80;;;2.47;;
31674;SDS011;18276;45.520;11.018;2023-04-25T14:53:06;4.60;;;3.15;;
31674;SDS011;18276;45.520;11.018;2023-04-25T14:55:33;2.40;;;2.15;;
31674;SDS011;18276;45.520;11.018;2023-04-25T14:58:00;2.88;;;1.92;;
31674;SDS011;18276;45.520;11.018;2023-04-25T15:00:27;3.80;;;2.50;;
31674;SDS011;18276;45.520;11.018;2023-04-25T15:02:54;3.80;;;2.30;;
31674;SDS011;18276;45.520;11.018;2023-04-25T15:05:22;3.63;;;1.77;;
31674;SDS011;18276;45.520;11.018;2023-04-25T15:07:49;1.25;;;1.02;;
31674;SDS011;18276;45.520;11.018;2023-04-25T15:10:17;2.97;;;1.90;;
31674;SDS011;18276;45.520;11.018;2023-04-25T15:12:45;1.60;;;1.30;;
31674;SDS011;18276;45.520;11.018;2023-04-25T15:15:15;2.38;;;1.40;;
31674;SDS011;18276;45.520;11.018;2023-04-25T15:17:52;3.33;;;1.30;;
31674;SDS011;18276;45.520;11.018;2023-04-25T15:20:25;2.17;;;1.40;;
31674;SDS011;18276;45.520;11.018;2023-04-25T15:22:53;2.28;;;1.20;;
31674;SDS011;18276;45.520;11.018;2023-04-25T15:25:20;2.30;;;1.05;;
31674;SDS011;18276;45.520;11.018;2023-04-25T15:27:48;1.70;;;1.20;;
31674;SDS011;18276;45.520;11.018;2023-04-25T15:30:16;2.22;;;1.60;;
31674;SDS011;18276;45.520;11.018;2023-04-25T15:32:44;2.72;;;1.42;;
31674;SDS011;18276;45.520;11.018;2023-04-25T15:35:13;2.28;;;1.98;;
31674;SDS011;18276;45.520;11.018;2023-04-25T15:37:43;6.28;;;2.50;;
31674;SDS011;18276;45.520;11.018;2023-04-25T15:40:15;4.63;;;2.60;;
31674;SDS011;18276;45.520;11.018;2023-04-25T15:42:46;1.58;;;1.23;;
31674;SDS011;18276;45.520;11.018;2023-04-25T15:45:17;1.80;;;1.02;;
31674;SDS011;18276;45.520;11.018;2023-04-25T15:47:46;2.10;;;1.15;;
31674;SDS011;18276;45.520;11.018;2023-04-25T15:50:13;4.07;;;1.52;;
31674;SDS011;18276;45.520;11.018;2023-04-25T15:52:41;2.35;;;1.50;;
31674;SDS011;18276;45.520;11.018;2023-04-25T15:55:09;1.65;;;1.38;;
31674;SDS011;18276;45.520;11.018;2023-04-25T15:57:38;1.50;;;1.15;;
31674;SDS011;18276;45.520;11.018;2023-04-25T16:00:07;1.25;;;1.05;;
31674;SDS011;18276;45.520;11.018;2023-04-25T16:02:44;1.58;;;1.27;;
31674;SDS011;18276;45.520;11.018;2023-04-25T16:05:16;2.22;;;1.20;;
31674;SDS011;18276;45.520;11.018;2023-04-25T16:07:44;1.33;;;1.23;;
31674;SDS011;18276;45.520;11.018;2023-04-25T16:10:14;1.95;;;1.13;;
31674;SDS011;18276;45.520;11.018;2023-04-25T16:12:45;4.65;;;1.15;;
31674;SDS011;18276;45.520;11.018;2023-04-25T16:15:16;1.40;;;1.27;;
31674;SDS011;18276;45.520;11.018;2023-04-25T16:17:43;2.95;;;1.33;;
31674;SDS011;18276;45.520;11.018;2023-04-25T16:20:11;2.42;;;1.38;;
31674;SDS011;18276;45.520;11.018;2023-04-25T16:22:39;2.33;;;1.55;;
31674;SDS011;18276;45.520;11.018;2023-04-25T16:25:08;2.45;;;1.30;;
31674;SDS011;18276;45.520;11.018;2023-04-25T16:27:38;2.45;;;1.20;;
31674;SDS011;18276;45.520;11.018;2023-04-25T16:30:08;2.70;;;1.52;;
31674;SDS011;18276;45.520;11.018;2023-04-25T16:32:36;3.25;;;1.73;;
31674;SDS011;18276;45.520;11.018;2023-04-25T16:35:05;3.40;;;2.35;;
31674;SDS011;18276;45.520;11.018;2023-04-25T16:37:33;2.40;;;2.03;;
31674;SDS011;18276;45.520;11.018;2023-04-25T16:40:00;4.05;;;2.60;;
31674;SDS011;18276;45.520;11.018;2023-04-25T16:42:28;4.18;;;2.53;;
31674;SDS011;18276;45.520;11.018;2023-04-25T16:44:55;3.88;;;2.67;;
31674;SDS011;18276;45.520;11.018;2023-04-25T16:47:22;3.17;;;1.90;;
31674;SDS011;18276;45.520;11.018;2023-04-25T16:49:51;2.38;;;1.35;;
31674;SDS011;18276;45.520;11.018;2023-04-25T16:52:18;2.85;;;2.20;;
31674;SDS011;18276;45.520;11.018;2023-04-25T16:54:48;1.90;;;1.20;;
31674;SDS011;18276;45.520;11.018;2023-04-25T16:57:16;2.55;;;1.20;;
31674;SDS011;18276;45.520;11.018;2023-04-25T16:59:43;1.70;;;1.60;;
31674;SDS011;18276;45.520;11.018;2023-04-25T17:02:10;4.65;;;4.13;;
31674;SDS011;18276;45.520;11.018;2023-04-25T17:04:38;6.57;;;5.95;;
31674;SDS011;18276;45.520;11.018;2023-04-25T17:07:06;6.43;;;5.68;;
31674;SDS011;18276;45.520;11.018;2023-04-25T17:09:34;7.43;;;3.95;;
31674;SDS011;18276;45.520;11.018;2023-04-25T17:12:02;7.72;;;4.90;;
31674;SDS011;18276;45.520;11.018;2023-04-25T17:14:29;12.30;;;9.43;;
31674;SDS011;18276;45.520;11.018;2023-04-25T17:16:58;4.30;;;3.47;;
31674;SDS011;18276;45.520;11.018;2023-04-25T17:19:26;5.55;;;3.15;;
31674;SDS011;18276;45.520;11.018;2023-04-25T17:21:53;3.63;;;2.10;;
31674;SDS011;18276;45.520;11.018;2023-04-25T17:24:26;10.02;;;5.82;;
31674;SDS011;18276;45.520;11.018;2023-04-25T17:26:52;11.35;;;6.15;;
31674;SDS011;18276;45.520;11.018;2023-04-25T17:29:21;6.72;;;3.60;;
31674;SDS011;18276;45.520;11.018;2023-04-25T17:31:53;3.70;;;3.30;;
31674;SDS011;18276;45.520;11.018;2023-04-25T17:34:22;9.38;;;4.90;;
31674;SDS011;18276;45.520;11.018;2023-04-25T17:36:50;45.78;;;26.35;;
31674;SDS011;18276;45.520;11.018;2023-04-25T17:39:17;26.73;;;17.40;;
31674;SDS011;18276;45.520;11.018;2023-04-25T17:41:45;45.28;;;24.77;;
31674;SDS011;18276;45.520;11.018;2023-04-25T17:44:12;40.80;;;22.80;;
31674;SDS011;18276;45.520;11.018;2023-04-25T17:46:39;42.45;;;25.60;;
31674;SDS011;18276;45.520;11.018;2023-04-25T17:49:07;26.15;;;14.70;;
31674;SDS011;18276;45.520;11.018;2023-04-25T17:51:38;9.43;;;5.72;;
31674;SDS011;18276;45.520;11.018;2023-04-25T17:54:05;20.70;;;10.80;;
31674;SDS011;18276;45.520;11.018;2023-04-25T17:56:35;10.73;;;7.45;;
31674;SDS011;18276;45.520;11.018;2023-04-25T17:59:03;14.60;;;8.73;;
31674;SDS011;18276;45.520;11.018;2023-04-25T18:01:30;8.75;;;4.80;;
31674;SDS011;18276;45.520;11.018;2023-04-25T18:03:57;11.43;;;4.18;;
31674;SDS011;18276;45.520;11.018;2023-04-25T18:06:31;4.35;;;2.47;;
31674;SDS011;18276;45.520;11.018;2023-04-25T18:08:58;4.95;;;3.03;;
31674;SDS011;18276;45.520;11.018;2023-04-25T18:11:27;25.02;;;11.70;;
31674;SDS011;18276;45.520;11.018;2023-04-25T18:13:55;7.30;;;4.68;;
31674;SDS011;18276;45.520;11.018;2023-04-25T18:16:22;8.73;;;4.75;;
31674;SDS011;18276;45.520;11.018;2023-04-25T18:18:49;5.75;;;3.45;;
31674;SDS011;18276;45.520;11.018;2023-04-25T18:21:19;5.85;;;3.17;;
31674;SDS011;18276;45.520;11.018;2023-04-25T18:23:47;4.22;;;2.65;;
31674;SDS011;18276;45.520;11.018;2023-04-25T18:26:14;9.52;;;4.78;;
31674;SDS011;18276;45.520;11.018;2023-04-25T18:28:41;4.35;;;3.35;;
31674;SDS011;18276;45.520;11.018;2023-04-25T18:31:09;4.32;;;3.00;;
31674;SDS011;18276;45.520;11.018;2023-04-25T18:33:37;4.50;;;2.80;;
31674;SDS011;18276;45.520;11.018;2023-04-25T18:36:05;5.93;;;2.55;;
31674;SDS011;18276;45.520;11.018;2023-04-25T18:38:32;4.63;;;3.30;;
31674;SDS011;18276;45.520;11.018;2023-04-25T18:41:01;7.03;;;3.80;;